Time;durP1;ratioP1;P1;durP2;ratioP2;P2;SDS_P1;SDS_P2;PMS_P1;PMS_P2;Temp;Humidity;BMP_temperature;BMP_pressure;BME280_temperature;BME280_humidity;BME280_pressure;Samples;Min_cycle;Max_cycle;Signal;HPM_P1;HPM_P2
2022/07/04 00:01:30;;;;;;;4.45;1.90;;;;;;;16.99;100.00;101978.91;4979989;28;20054;-63
2022/07/04 00:03:57;;;;;;;4.80;2.15;;;;;;;16.94;100.00;101983.84;4972066;28;20058;-63
2022/07/04 00:06:23;;;;;;;5.00;1.88;;;;;;;16.89;100.00;101974.69;4964759;28;20055;-63
2022/07/04 00:08:50;;;;;;;5.93;2.00;;;;;;;16.91;100.00;101983.31;4979122;28;20100;-63
2022/07/04 00:11:16;;;;;;;6.10;2.03;;;;;;;16.89;100.00;101982.66;4969656;28;20050;-63
2022/07/04 00:13:43;;;;;;;5.10;1.90;;;;;;;16.79;100.00;101983.56;4978401;28;20050;-63
2022/07/04 00:16:09;;;;;;;3.03;1.80;;;;;;;16.72;100.00;101977.25;4967441;28;20479;-62
2022/07/04 00:18:35;;;;;;;3.92;1.95;;;;;;;16.66;100.00;101975.25;4972712;28;20518;-63
2022/07/04 00:21:02;;;;;;;5.55;2.05;;;;;;;16.68;100.00;101985.66;4978443;28;20065;-63
2022/07/04 00:23:28;;;;;;;4.88;1.98;;;;;;;16.66;100.00;101979.69;4970223;28;20061;-63
2022/07/04 00:25:55;;;;;;;5.53;1.92;;;;;;;16.66;100.00;101975.25;4979766;28;20682;-63
2022/07/04 00:28:21;;;;;;;3.95;1.88;;;;;;;16.71;100.00;101967.63;4970250;28;20101;-64
2022/07/04 00:30:48;;;;;;;7.03;1.80;;;;;;;16.73;100.00;101976.25;4974507;28;20054;-64
2022/07/04 00:33:15;;;;;;;5.60;2.35;;;;;;;16.69;100.00;101969.63;4974399;28;20046;-63
2022/07/04 00:35:42;;;;;;;3.03;1.60;;;;;;;16.60;100.00;101967.91;4970099;28;20090;-63
2022/07/04 00:38:09;;;;;;;4.15;2.10;;;;;;;16.54;100.00;101969.41;4978477;28;20054;-62
2022/07/04 00:40:35;;;;;;;4.22;1.80;;;;;;;16.48;100.00;101970.00;4964457;28;20058;-63
2022/07/04 00:43:03;;;;;;;6.65;1.80;;;;;;;16.42;100.00;101973.28;4977152;28;20403;-63
2022/07/04 00:45:30;;;;;;;3.72;1.75;;;;;;;16.39;100.00;101970.97;4963078;28;20055;-63
2022/07/04 00:47:56;;;;;;;5.18;2.00;;;;;;;16.32;100.00;101975.22;4974011;28;20051;-63
2022/07/04 00:50:25;;;;;;;3.08;1.70;;;;;;;16.33;100.00;101974.25;4978000;28;20057;-63
2022/07/04 00:52:52;;;;;;;;;;;;;;;16.27;100.00;101982.78;4970098;28;20061;-63
2022/07/04 00:55:20;;;;;;;7.47;2.10;;;;;;;16.19;100.00;101980.91;4977956;28;19926;-63
2022/07/04 00:57:47;;;;;;;4.85;1.80;;;;;;;16.08;100.00;101984.66;4970841;28;20050;-62
2022/07/04 01:00:14;;;;;;;3.55;1.60;;;;;;;16.12;100.00;101987.81;4953331;28;20050;-63
2022/07/04 01:02:40;;;;;;;4.32;2.00;;;;;;;16.12;100.00;101990.47;4972706;28;20054;-63
2022/07/04 01:05:07;;;;;;;4.07;1.80;;;;;;;16.07;100.00;101977.69;4974652;28;20052;-64
2022/07/04 01:07:35;;;;;;;5.25;1.90;;;;;;;16.03;100.00;101978.97;4978652;28;20058;-63
2022/07/04 01:10:03;;;;;;;5.20;2.40;;;;;;;16.00;100.00;101981.94;4964492;28;20067;-63
2022/07/04 01:12:30;;;;;;;4.10;2.00;;;;;;;15.97;100.00;101976.94;4972012;28;20553;-63
2022/07/04 01:14:57;;;;;;;4.28;2.10;;;;;;;15.92;100.00;101979.25;4965303;28;20793;-64
2022/07/04 01:17:23;;;;;;;5.13;2.38;;;;;;;15.85;100.00;101981.66;4978248;28;20054;-63
2022/07/04 01:19:53;;;;;;;6.85;2.10;;;;;;;15.83;100.00;101983.63;4978497;28;20502;-63
2022/07/04 01:22:21;;;;;;;7.60;2.40;;;;;;;15.79;100.00;101977.81;4967003;28;20054;-63
2022/07/04 01:24:47;;;;;;;3.28;1.70;;;;;;;15.81;100.00;101978.47;4974065;28;20431;-63
2022/07/04 01:27:15;;;;;;;10.48;2.42;;;;;;;15.86;100.00;101971.91;4961837;28;20066;-63
2022/07/04 01:29:41;;;;;;;3.72;2.03;;;;;;;15.82;100.00;101963.47;4965461;28;20046;-62
2022/07/04 01:32:09;;;;;;;4.70;2.20;;;;;;;15.77;100.00;101969.19;4970156;28;20061;-62
2022/07/04 01:34:36;;;;;;;7.00;2.45;;;;;;;15.70;100.00;101960.19;4973168;28;20043;-64
2022/07/04 01:37:09;;;;;;;3.50;2.00;;;;;;;15.65;100.00;101959.81;4974582;28;20060;-63
2022/07/04 01:39:35;;;;;;;6.13;2.20;;;;;;;15.62;100.00;101958.31;4969840;28;20042;-62
2022/07/04 01:42:02;;;;;;;6.35;2.33;;;;;;;15.67;100.00;101960.47;4972010;28;20058;-64
2022/07/04 01:44:28;;;;;;;4.20;2.45;;;;;;;15.68;100.00;101953.38;4970800;28;20056;-63
2022/07/04 01:46:55;;;;;;;8.45;2.47;;;;;;;15.68;100.00;101948.06;4982298;28;20046;-63
2022/07/04 01:49:21;;;;;;;8.48;2.58;;;;;;;15.65;100.00;101951.03;4974651;28;20058;-61
2022/07/04 01:51:49;;;;;;;6.50;2.50;;;;;;;15.62;100.00;101953.00;4979435;28;20517;-63
2022/07/04 01:54:16;;;;;;;5.50;2.58;;;;;;;15.51;100.00;101963.81;4959275;28;20050;-63
2022/07/04 01:56:43;;;;;;;6.40;2.60;;;;;;;15.48;100.00;101950.88;4967495;28;20054;-63
2022/07/04 01:59:09;;;;;;;4.95;2.55;;;;;;;15.45;100.00;101945.91;4969912;28;20058;-62
2022/07/04 02:01:37;;;;;;;6.05;2.75;;;;;;;15.39;100.00;101946.53;4973033;28;20704;-62
2022/07/04 02:04:05;;;;;;;5.28;2.72;;;;;;;15.38;100.00;101947.50;4974713;28;20068;-64
2022/07/04 02:06:32;;;;;;;;;;;;;;;15.36;100.00;101952.09;4975402;28;20086;-62
2022/07/04 02:09:17;;;;;;;9.00;3.15;;;;;;;15.33;100.00;101947.13;4956331;28;19925;-63
2022/07/04 02:14:32;;;;;;;6.85;3.55;;;;;;;15.31;100.00;101946.41;4972712;28;20050;-63
2022/07/04 02:16:58;;;;;;;7.28;3.90;;;;;;;15.26;100.00;101949.53;4977429;28;20046;-63
2022/07/04 02:19:24;;;;;;;7.30;3.90;;;;;;;15.20;100.00;101939.53;4972185;28;20139;-63
2022/07/04 02:21:51;;;;;;;7.72;3.60;;;;;;;15.19;100.00;101941.38;4979621;28;20815;-63
2022/07/04 02:24:19;;;;;;;5.15;3.30;;;;;;;15.20;100.00;101935.09;4975178;28;20078;-62
2022/07/04 02:26:47;;;;;;;5.80;3.53;;;;;;;15.19;100.00;101937.88;4971893;28;20077;-62
2022/07/04 02:29:14;;;;;;;5.45;3.88;;;;;;;15.15;100.00;101932.06;4975959;28;20364;-62
2022/07/04 02:31:40;;;;;;;6.32;3.63;;;;;;;15.12;100.00;101935.00;4972305;28;20050;-61
2022/07/04 02:34:07;;;;;;;7.45;4.05;;;;;;;15.06;100.00;101932.13;4981169;28;20054;-63
2022/07/04 02:36:33;;;;;;;6.05;3.20;;;;;;;15.05;100.00;101927.81;4967612;28;20171;-63
2022/07/04 02:39:00;;;;;;;6.18;3.40;;;;;;;15.01;100.00;101928.13;4979215;28;20062;-63
2022/07/04 02:41:27;;;;;;;5.63;3.55;;;;;;;14.97;100.00;101929.38;4980902;28;20050;-62
2022/07/04 02:43:54;;;;;;;7.18;3.88;;;;;;;14.98;100.00;101930.22;4974738;28;20046;-63
2022/07/04 02:46:20;;;;;;;5.93;4.07;;;;;;;14.94;100.00;101927.06;4975350;28;20053;-63
2022/07/04 02:48:47;;;;;;;5.90;4.30;;;;;;;14.93;100.00;101932.47;4971356;28;20058;-63
2022/07/04 02:51:13;;;;;;;6.82;4.18;;;;;;;14.92;100.00;101934.28;4973015;28;20281;-64
2022/07/04 02:53:40;;;;;;;9.73;4.40;;;;;;;14.89;100.00;101933.75;4954006;28;20077;-63
2022/07/04 02:56:07;;;;;;;10.32;4.47;;;;;;;14.89;100.00;101933.75;4978264;28;20050;-62
2022/07/04 02:58:33;;;;;;;6.45;4.20;;;;;;;14.86;100.00;101939.31;4981113;28;20058;-63
2022/07/04 03:01:00;;;;;;;9.52;4.75;;;;;;;14.86;100.00;101939.31;4950357;28;20395;-62
2022/07/04 03:03:27;;;;;;;9.00;5.00;;;;;;;14.88;100.00;101951.44;4973863;28;20435;-64
2022/07/04 03:05:54;;;;;;;8.80;4.13;;;;;;;14.85;100.00;101938.50;4967611;28;20054;-63
2022/07/04 03:08:20;;;;;;;7.30;4.60;;;;;;;14.81;100.00;101945.88;4979433;28;20052;-63
2022/07/04 03:10:49;;;;;;;6.03;4.10;;;;;;;14.79;100.00;101950.47;4980023;28;20054;-63
2022/07/04 03:13:16;;;;;;;6.47;4.32;;;;;;;14.78;100.00;101959.41;4971750;28;20085;-60
2022/07/04 03:15:43;;;;;;;6.45;3.88;;;;;;;14.77;100.00;101949.78;4980004;28;20050;-63
2022/07/04 03:18:09;;;;;;;7.00;4.40;;;;;;;14.76;100.00;101964.00;4966746;28;20238;-62
2022/07/04 03:20:35;;;;;;;6.82;4.50;;;;;;;14.72;100.00;101962.63;4975597;28;20050;-63
2022/07/04 03:23:02;;;;;;;7.90;4.80;;;;;;;14.70;100.00;101963.72;4972138;28;20277;-63
2022/07/04 03:25:29;;;;;;;8.63;5.28;;;;;;;14.67;100.00;101961.41;4979603;28;20054;-62
2022/07/04 03:27:55;;;;;;;8.52;4.03;;;;;;;14.64;100.00;101965.13;4979289;28;20412;-63
2022/07/04 03:30:22;;;;;;;6.97;4.13;;;;;;;14.64;100.00;101965.13;4971292;28;20050;-62
2022/07/04 03:32:48;;;;;;;9.80;4.65;;;;;;;14.63;100.00;101972.22;4963816;28;20066;-63
2022/07/04 03:35:15;;;;;;;6.13;4.40;;;;;;;14.61;100.00;101971.53;4967852;28;20061;-64
2022/07/04 03:37:41;;;;;;;9.10;5.00;;;;;;;14.59;100.00;101970.03;4979500;28;20046;-62
2022/07/04 03:40:09;;;;;;;5.55;4.28;;;;;;;14.61;100.00;101965.44;4979782;28;20050;-62
2022/07/04 03:42:35;;;;;;;7.57;4.50;;;;;;;14.59;100.00;101975.31;4967625;28;20423;-61
2022/07/04 03:45:03;;;;;;;8.32;4.40;;;;;;;14.60;100.00;101975.19;4960079;28;20061;-63
2022/07/04 03:47:29;;;;;;;6.82;4.78;;;;;;;14.55;100.00;101976.56;4966359;28;20050;-64
2022/07/04 03:49:56;;;;;;;9.55;5.03;;;;;;;14.59;100.00;101973.50;4979161;28;20433;-63
2022/07/04 03:52:22;;;;;;;7.90;5.03;;;;;;;14.57;100.00;101975.47;4963071;28;20051;-62
2022/07/04 03:54:48;;;;;;;10.55;4.93;;;;;;;14.58;100.00;101986.84;4979369;28;20050;-63
2022/07/04 03:57:15;;;;;;;8.18;5.30;;;;;;;14.60;100.00;101991.03;4977807;28;20096;-63
2022/07/04 03:59:41;;;;;;;9.65;5.40;;;;;;;14.62;100.00;101991.72;4961568;28;20054;-62
2022/07/04 04:02:08;;;;;;;9.82;5.72;;;;;;;14.63;100.00;101997.81;4976627;28;20055;-61
2022/07/04 04:07:19;;;;;;;12.38;6.13;;;;;;;14.68;100.00;102002.66;4976976;28;20049;-63
2022/07/04 04:09:46;;;;;;;10.40;5.68;;;;;;;14.68;100.00;102005.28;4971447;28;20084;-63
2022/07/04 04:12:12;;;;;;;12.40;6.63;;;;;;;14.73;100.00;102011.00;4968012;28;20051;-62
2022/07/04 04:14:38;;;;;;;11.82;6.55;;;;;;;14.76;100.00;102015.97;4968810;28;20046;-63
2022/07/04 04:17:05;;;;;;;10.50;6.50;;;;;;;14.76;100.00;102013.31;4964471;28;20128;-62
2022/07/04 04:19:32;;;;;;;14.13;6.63;;;;;;;14.81;100.00;102014.56;4980062;28;20050;-63
2022/07/04 04:21:58;;;;;;;11.27;5.60;;;;;;;14.83;100.00;102006.50;4968518;28;20065;-63
2022/07/04 04:24:25;;;;;;;8.25;5.55;;;;;;;14.87;100.00;102010.50;4979353;28;20050;-63
2022/07/04 04:26:51;;;;;;;9.85;6.10;;;;;;;14.89;100.00;102010.38;4975196;28;20062;-62
2022/07/04 04:29:18;;;;;;;10.77;6.65;;;;;;;14.88;100.00;102017.47;4965994;28;20536;-63
2022/07/04 04:31:44;;;;;;;9.98;7.25;;;;;;;14.87;100.00;102014.97;4978695;28;20054;-63
2022/07/04 04:34:11;;;;;;;8.98;5.53;;;;;;;14.96;100.00;102017.56;4967885;28;20047;-63
2022/07/04 04:36:37;;;;;;;13.88;7.55;;;;;;;14.95;100.00;102012.41;4978852;28;20138;-62
2022/07/04 04:39:04;;;;;;;11.07;7.35;;;;;;;14.94;100.00;102008.94;4971125;28;20050;-63
2022/07/04 04:41:30;;;;;;;14.35;7.47;;;;;;;14.93;100.00;102017.03;4972326;28;20053;-63
2022/07/04 04:43:56;;;;;;;13.25;7.22;;;;;;;14.99;100.00;102012.00;4977934;28;20061;-63
2022/07/04 04:46:23;;;;;;;17.52;7.07;;;;;;;14.96;100.00;102017.56;4970216;28;20054;-62
2022/07/04 04:48:50;;;;;;;11.15;7.70;;;;;;;14.99;100.00;102008.50;4979111;28;20489;-63
2022/07/04 04:51:16;;;;;;;11.40;6.53;;;;;;;14.96;100.00;102000.88;4969125;28;20070;-63
2022/07/04 04:53:43;;;;;;;11.40;7.22;;;;;;;14.97;100.00;101998.06;4973293;28;20860;-63
2022/07/04 04:56:09;;;;;;;9.60;7.10;;;;;;;15.03;100.00;102000.16;4972596;28;20050;-62
2022/07/04 04:58:36;;;;;;;13.73;5.90;;;;;;;15.10;100.00;102003.03;4962340;28;20061;-61
2022/07/04 05:01:02;;;;;;;10.15;6.20;;;;;;;15.15;100.00;101992.84;4977656;28;20085;-63
2022/07/04 05:03:49;;;;;;;11.93;5.82;;;;;;;15.19;100.00;102001.31;4966594;28;20303;-63
2022/07/04 05:06:15;;;;;;;8.85;5.72;;;;;;;15.20;100.00;101998.50;4976116;28;20684;-62
2022/07/04 05:08:42;;;;;;;9.57;6.00;;;;;;;15.20;100.00;101995.88;4961291;28;20072;-63
2022/07/04 05:11:08;;;;;;;13.38;6.45;;;;;;;15.28;100.00;101999.59;4975316;28;20248;-63
2022/07/04 05:13:35;;;;;;;8.30;5.70;;;;;;;15.30;100.00;101987.06;4977971;28;20058;-63
2022/07/04 05:16:02;;;;;;;7.32;5.20;;;;;;;15.34;100.00;101993.72;4970223;28;20092;-63
2022/07/04 05:18:28;;;;;;;8.35;5.88;;;;;;;15.41;100.00;102000.06;4980657;28;20606;-62
2022/07/04 05:20:55;;;;;;;11.90;5.82;;;;;;;15.44;100.00;101994.47;4970798;28;20077;-63
2022/07/04 05:23:21;;;;;;;9.63;5.55;;;;;;;15.47;100.00;101996.00;4975519;28;20046;-64
2022/07/04 05:25:48;;;;;;;8.70;5.70;;;;;;;15.49;100.00;101994.03;4975311;28;20443;-63
2022/07/04 05:28:14;;;;;;;10.65;5.80;;;;;;;15.57;100.00;101999.41;4980317;28;20069;-64
2022/07/04 05:30:42;;;;;;;12.45;5.90;;;;;;;15.59;100.00;102008.84;4980473;28;20489;-62
2022/07/04 05:33:08;;;;;;;11.50;5.40;;;;;;;15.63;100.00;102006.72;4979946;28;20050;-63
2022/07/04 05:35:35;;;;;;;8.82;5.22;;;;;;;15.71;100.00;102013.91;4977678;28;20058;-63
2022/07/04 05:38:02;;;;;;;9.63;5.93;;;;;;;15.71;100.00;102011.28;4968591;28;20054;-63
2022/07/04 05:40:28;;;;;;;10.45;5.65;;;;;;;15.74;100.00;102021.56;4979508;28;20368;-63
2022/07/04 05:42:56;;;;;;;9.20;5.00;;;;;;;15.79;100.00;102025.41;4982009;28;20065;-63
2022/07/04 05:45:22;;;;;;;13.03;6.20;;;;;;;15.82;100.00;102026.97;4965995;28;20051;-63
2022/07/04 05:47:49;;;;;;;8.93;6.13;;;;;;;15.86;100.00;102024.81;4972320;28;20237;-63
2022/07/04 05:50:15;;;;;;;11.32;5.43;;;;;;;15.97;100.00;102028.06;4967729;28;20529;-61
2022/07/04 05:52:42;;;;;;;8.85;5.70;;;;;;;16.06;100.00;102028.16;4955521;28;20066;-61
2022/07/04 05:55:09;;;;;;;11.80;5.38;;;;;;;16.16;100.00;102035.00;4976643;28;20399;-62
2022/07/04 05:57:35;;;;;;;14.25;5.93;;;;;;;16.19;100.00;102040.00;4976848;28;20096;-61
2022/07/04 06:00:07;;;;;;;12.15;5.88;;;;;;;16.25;100.00;102043.00;4964425;28;20142;-64
2022/07/04 06:02:33;;;;;;;10.20;5.40;;;;;;;16.25;100.00;102043.84;4968245;28;20061;-63
2022/07/04 06:05:00;;;;;;;13.20;5.57;;;;;;;16.25;100.00;102033.25;4968219;28;20062;-63
2022/07/04 06:07:27;;;;;;;8.85;5.43;;;;;;;16.28;100.00;102032.94;4969707;28;20511;-63
2022/07/04 06:09:53;;;;;;;12.93;5.63;;;;;;;16.37;100.00;102034.66;4979250;28;20077;-63
2022/07/04 06:12:19;;;;;;;12.45;6.80;;;;;;;16.38;100.00;102036.31;4981770;28;20061;-62
2022/07/04 06:14:46;;;;;;;9.65;5.80;;;;;;;16.42;100.00;102042.13;4972656;28;20058;-63
2022/07/04 06:17:13;;;;;;;9.63;6.03;;;;;;;16.49;100.00;102031.78;4971394;28;20280;-63
2022/07/04 06:19:39;;;;;;;10.32;5.53;;;;;;;16.63;100.00;102036.47;4965099;28;20061;-64
2022/07/04 06:22:05;;;;;;;10.45;5.22;;;;;;;16.70;100.00;102034.88;4981518;28;20492;-63
2022/07/04 06:24:32;;;;;;;13.15;4.63;;;;;;;16.80;100.00;102035.59;4973989;28;20062;-63
2022/07/04 06:26:58;;;;;;;10.98;5.07;;;;;;;16.89;100.00;102031.19;4980213;28;20050;-63
2022/07/04 06:29:25;;;;;;;9.48;5.47;;;;;;;16.81;100.00;102025.81;4979213;28;20054;-63
2022/07/04 06:31:51;;;;;;;10.93;5.50;;;;;;;16.78;100.00;102029.63;4963310;28;20058;-62
2022/07/04 06:37:03;;;;;;;11.50;5.32;;;;;;;16.94;100.00;102028.06;4966228;28;20050;-64
2022/07/04 06:39:29;;;;;;;12.55;5.78;;;;;;;17.08;100.00;102031.94;4980183;28;20061;-63
2022/07/04 06:41:56;;;;;;;11.93;6.22;;;;;;;17.17;100.00;102031.81;4969050;28;20402;-62
2022/07/04 06:44:22;;;;;;;11.90;5.65;;;;;;;17.26;100.00;102029.19;4972285;28;20062;-60
2022/07/04 06:46:50;;;;;;;12.50;5.97;;;;;;;17.36;100.00;102035.97;4967292;28;20165;-63
2022/07/04 06:49:17;;;;;;;10.02;5.45;;;;;;;17.46;100.00;102030.53;4970812;28;20050;-62
2022/07/04 06:51:43;;;;;;;11.15;5.43;;;;;;;17.52;100.00;102032.56;4980320;28;20349;-63
2022/07/04 06:54:10;;;;;;;12.40;5.30;;;;;;;17.67;100.00;102030.09;4971614;28;20060;-61
2022/07/04 06:56:36;;;;;;;13.13;5.45;;;;;;;17.56;100.00;102031.25;4979900;28;20435;-63
2022/07/04 06:59:04;;;;;;;8.43;5.20;;;;;;;17.58;100.00;102037.22;4973686;28;20600;-63
2022/07/04 07:01:31;;;;;;;7.57;5.53;;;;;;;17.56;100.00;102039.22;4961779;28;20065;-62
2022/07/04 07:03:57;;;;;;;7.28;4.93;;;;;;;17.62;100.00;102026.25;4965450;28;20060;-62
2022/07/04 07:06:24;;;;;;;14.45;5.75;;;;;;;17.72;100.00;102011.00;4971562;28;20058;-62
2022/07/04 07:08:50;;;;;;;11.25;5.47;;;;;;;17.78;100.00;102010.38;4979223;28;20081;-62
2022/07/04 07:11:18;;;;;;;11.38;4.97;;;;;;;17.97;100.00;102014.53;4967760;28;20419;-63
2022/07/04 07:13:48;;;;;;;7.95;5.38;;;;;;;17.96;100.00;102011.06;4970693;28;20209;-64
2022/07/04 07:16:14;;;;;;;9.38;5.18;;;;;;;18.12;100.00;102020.03;4961169;28;20137;-62
2022/07/04 07:18:41;;;;;;;17.70;5.50;;;;;;;18.21;100.00;102029.66;4971878;28;20061;-63
2022/07/04 07:21:07;;;;;;;10.82;5.32;;;;;;;18.25;100.00;102023.00;4979885;28;20566;-62
2022/07/04 07:23:36;;;;;;;10.65;5.57;;;;;;;18.35;100.00;102031.63;4972204;28;20579;-63
2022/07/04 07:26:03;;;;;;;9.02;5.80;;;;;;;18.46;100.00;102022.47;4973935;28;20062;-61
2022/07/04 07:28:29;;;;;;;10.90;5.53;;;;;;;18.53;100.00;102019.97;4967122;28;20051;-62
2022/07/04 07:30:55;;;;;;;9.60;5.40;;;;;;;18.63;100.00;102022.44;4972822;28;20613;-63
2022/07/04 07:33:22;;;;;;;10.55;5.20;;;;;;;18.71;100.00;102027.72;4979901;28;20053;-64
2022/07/04 07:35:48;;;;;;;11.27;5.90;;;;;;;18.73;100.00;102026.53;4971682;28;20046;-62
2022/07/04 07:38:15;;;;;;;11.82;5.15;;;;;;;18.83;100.00;102021.06;4971011;28;20054;-63
2022/07/04 07:40:41;;;;;;;11.85;5.78;;;;;;;18.82;100.00;102015.91;4965971;28;20053;-63
2022/07/04 07:43:08;;;;;;;11.82;5.88;;;;;;;18.85;100.00;102019.06;4975649;28;20054;-61
2022/07/04 07:45:34;;;;;;;13.35;6.43;;;;;;;18.83;100.00;102017.59;4980483;28;20550;-63
2022/07/04 07:48:02;;;;;;;10.68;6.00;;;;;;;18.77;100.00;102024.38;4970828;28;20050;-63
2022/07/04 07:50:28;;;;;;;15.45;6.30;;;;;;;18.71;100.00;102007.28;4980310;28;20336;-63
2022/07/04 07:52:55;;;;;;;17.50;7.38;;;;;;;18.76;100.00;101998.81;4970080;28;20060;-62
2022/07/04 07:55:21;;;;;;;13.55;6.75;;;;;;;18.71;100.00;102001.16;4972982;28;20072;-62
2022/07/04 07:57:48;;;;;;;13.77;6.40;;;;;;;18.67;100.00;101995.34;4966114;28;20047;-62
2022/07/04 08:00:15;;;;;;;13.52;7.15;;;;;;;18.80;100.00;101991.31;4969662;28;20077;-62
2022/07/04 08:05:43;;;;;;;13.85;6.85;;;;;;;18.80;100.00;102000.16;4961236;28;20065;-62
2022/07/04 08:08:10;;;;;;;13.68;7.35;;;;;;;18.89;100.00;102001.75;4972356;28;20285;-62
2022/07/04 08:10:37;;;;;;;16.25;7.43;;;;;;;19.00;100.00;102005.88;4965127;28;20053;-62
2022/07/04 08:13:05;;;;;;;12.73;6.80;;;;;;;19.14;100.00;102014.94;4979822;28;20173;-63
2022/07/04 08:15:32;;;;;;;12.02;6.15;;;;;;;19.31;100.00;102015.72;4968881;28;20418;-63
2022/07/04 08:17:59;;;;;;;13.13;6.55;;;;;;;19.38;100.00;102019.31;4978821;28;20046;-63
2022/07/04 08:20:26;;;;;;;14.30;6.05;;;;;;;19.40;100.00;102019.13;4971647;28;20097;-62
2022/07/04 08:22:52;;;;;;;14.30;6.38;;;;;;;19.51;100.00;102022.22;4964715;28;20054;-62
2022/07/04 08:25:19;;;;;;;11.70;5.55;;;;;;;19.75;100.00;102020.41;4973894;28;20052;-62
2022/07/04 08:27:46;;;;;;;9.57;5.72;;;;;;;20.04;100.00;102030.34;4970627;28;20549;-62
2022/07/04 08:30:12;;;;;;;9.00;5.38;;;;;;;20.17;100.00;102018.22;4960653;28;20056;-62
2022/07/04 08:32:39;;;;;;;12.98;6.25;;;;;;;20.30;100.00;102023.78;4971764;28;20542;-63
2022/07/04 08:35:07;;;;;;;11.05;5.28;;;;;;;20.37;100.00;102024.72;4968110;28;20288;-63
2022/07/04 08:37:33;;;;;;;13.43;5.70;;;;;;;20.30;100.00;102021.94;4968336;28;20384;-64
2022/07/04 08:40:02;;;;;;;13.95;6.30;;;;;;;20.44;100.00;102022.97;4944360;28;20050;-63
2022/07/04 08:42:32;;;;;;;13.00;6.75;;;;;;;20.50;100.00;102026.72;4975468;28;20061;-63
2022/07/04 08:45:01;;;;;;;18.63;6.57;;;;;;;20.50;100.00;102034.72;4969448;28;20061;-62
2022/07/04 08:47:31;;;;;;;14.52;5.75;;;;;;;20.61;100.00;102033.50;4977761;28;20046;-62
2022/07/04 08:50:00;;;;;;;17.38;5.82;;;;;;;20.54;100.00;102041.34;4973500;28;20483;-62
2022/07/04 08:52:36;;;;;;;13.27;5.28;;;;;;;20.78;100.00;102039.44;4964512;28;20056;-62
2022/07/04 09:01:07;;;;;;;13.25;6.13;;;;;;;21.11;100.00;102034.53;4905906;29;20052;-62
2022/07/04 09:03:34;;;;;;;12.00;5.38;;;;;;;21.35;100.00;102040.59;4938921;28;20053;-61
2022/07/04 09:06:01;;;;;;;9.93;4.53;;;;;;;21.44;100.00;102036.78;4970211;28;20429;-62
2022/07/04 09:08:28;;;;;;;11.27;5.40;;;;;;;21.38;100.00;102027.66;4963827;28;20609;-62
2022/07/04 09:10:54;;;;;;;11.60;4.72;;;;;;;21.58;100.00;102033.28;4970589;28;20056;-62
2022/07/04 09:13:21;;;;;;;13.43;4.97;;;;;;;21.60;100.00;102031.25;4972006;28;20064;-60
2022/07/04 09:15:50;;;;;;;8.20;4.53;;;;;;;21.74;100.00;102029.53;4969315;28;20084;-64
2022/07/04 09:18:29;;;;;;;10.43;4.43;;;;;;;21.67;100.00;102031.28;4965663;28;20467;-63
2022/07/04 09:20:58;;;;;;;9.60;4.57;;;;;;;21.59;100.00;102031.41;4967609;28;20547;-62
2022/07/04 09:23:30;;;;;;;11.73;4.40;;;;;;;21.69;100.00;102026.59;4973961;28;20047;-61
2022/07/04 09:26:17;;;;;;;10.00;4.85;;;;;;;21.98;100.00;102030.13;4967537;28;20054;-62
2022/07/04 09:28:49;;;;;;;10.90;4.32;;;;;;;22.23;100.00;102026.00;4971919;28;20489;-63
2022/07/04 09:31:21;;;;;;;14.00;5.03;;;;;;;22.04;100.00;102032.03;4970092;28;20368;-62
2022/07/04 09:33:54;;;;;;;16.40;5.25;;;;;;;21.89;100.00;102026.75;4944396;28;20630;-63
2022/07/04 09:36:26;;;;;;;12.82;4.30;;;;;;;21.88;100.00;102030.47;4976870;28;20053;-62
2022/07/04 09:39:18;;;;;;;8.90;3.80;;;;;;;22.05;100.00;102028.31;4967139;28;20056;-62
2022/07/04 09:41:59;;;;;;;9.82;3.80;;;;;;;21.83;100.00;102032.88;4969000;28;20050;-62
2022/07/04 09:44:42;;;;;;;11.40;4.20;;;;;;;22.25;100.00;102021.34;4963522;28;20054;-64
2022/07/04 09:47:24;;;;;;;8.90;3.58;;;;;;;22.24;100.00;102022.34;4974725;28;20411;-62
2022/07/04 09:50:04;;;;;;;8.48;3.55;;;;;;;22.69;100.00;102022.00;4958415;28;20340;-62
2022/07/04 09:52:31;;;;;;;14.20;4.15;;;;;;;23.00;100.00;102026.88;4971470;28;20392;-63
2022/07/04 09:55:05;;;;;;;9.48;4.07;;;;;;;23.08;100.00;102023.22;4971167;28;20263;-63
2022/07/04 09:57:32;;;;;;;9.13;3.70;;;;;;;23.53;100.00;102020.06;4964719;28;20059;-62
2022/07/04 10:00:21;;;;;;;8.18;4.25;;;;;;;23.60;100.00;102026.22;4967515;28;20061;-62
2022/07/04 10:02:49;;;;;;;10.95;3.13;;;;;;;23.61;100.00;102019.88;4956553;28;20054;-62
2022/07/04 10:05:27;;;;;;;7.63;2.88;;;;;;;23.32;99.68;102016.50;4972486;28;20486;-62
2022/07/04 10:07:58;;;;;;;9.38;3.22;;;;;;;23.72;98.54;102010.38;4967331;28;20408;-63
2022/07/04 10:10:26;;;;;;;7.90;2.90;;;;;;;23.49;99.94;102011.59;4972541;28;20060;-64
2022/07/04 10:12:55;;;;;;;8.57;3.00;;;;;;;23.34;100.00;102010.94;4965872;28;20570;-63
2022/07/04 10:15:22;;;;;;;7.53;2.67;;;;;;;23.38;100.00;102012.19;4976114;28;20487;-63
2022/07/04 10:17:49;;;;;;;7.80;2.83;;;;;;;23.30;100.00;102007.84;4981027;28;20054;-63
2022/07/04 10:20:15;;;;;;;17.83;3.50;;;;;;;23.28;100.00;102002.69;4971874;28;20050;-62
2022/07/04 10:22:42;;;;;;;9.50;2.50;;;;;;;23.46;100.00;102020.03;4981690;28;20058;-63
2022/07/04 10:25:09;;;;;;;6.78;2.63;;;;;;;23.58;98.09;102001.50;4965972;28;20057;-65
2022/07/04 10:27:37;;;;;;;7.55;2.08;;;;;;;23.59;98.42;102005.84;4976435;28;20529;-63
2022/07/04 10:30:06;;;;;;;6.00;2.67;;;;;;;23.45;96.90;102003.16;4973788;28;20284;-63
2022/07/04 10:32:33;;;;;;;9.20;3.05;;;;;;;23.35;99.35;102002.72;4961812;28;20295;-62
2022/07/04 10:35:00;;;;;;;9.82;2.63;;;;;;;23.21;100.00;102007.22;4976941;28;20050;-62
2022/07/04 10:38:00;;;;;;;6.55;2.72;;;;;;;23.23;99.55;101999.00;4969770;28;20050;-62
2022/07/04 10:40:44;;;;;;;4.97;2.38;;;;;;;23.28;99.27;102005.38;4971859;28;20459;-63
2022/07/04 10:43:41;;;;;;;7.25;2.80;;;;;;;23.18;98.43;102007.63;4968349;28;20080;-62
2022/07/04 10:46:19;;;;;;;7.60;2.60;;;;;;;23.08;97.28;101999.16;4979920;28;20054;-62
2022/07/04 10:49:17;;;;;;;7.82;2.42;;;;;;;23.00;99.11;101997.44;4971074;28;20082;-63
2022/07/04 10:51:48;;;;;;;;;;;;;;;22.84;98.57;102000.47;4977985;28;20046;-62
2022/07/04 10:54:24;;;;;;;7.70;2.15;;;;;;;22.83;99.43;101993.47;4963548;28;20484;-62
2022/07/04 10:56:53;;;;;;;9.70;2.40;;;;;;;22.85;99.86;102002.13;4979488;28;20149;-62
2022/07/04 10:59:21;;;;;;;6.13;2.30;;;;;;;22.83;98.30;102006.84;4966629;28;20497;-62
2022/07/04 11:02:04;;;;;;;4.93;2.10;;;;;;;23.12;100.00;102002.25;4978296;28;20050;-63
2022/07/04 11:05:09;;;;;;;5.75;1.65;;;;;;;23.65;97.62;101997.81;4968348;28;20574;-64
2022/07/04 11:07:36;;;;;;;6.60;2.42;;;;;;;23.80;94.01;102003.00;4973941;28;20047;-63
2022/07/04 11:12:53;;;;;;;6.80;2.78;;;;;;;24.31;89.42;101981.94;4963186;28;20054;-62
2022/07/04 11:15:40;;;;;;;5.28;2.30;;;;;;;24.82;90.72;101982.00;4976320;28;20054;-63
2022/07/04 11:18:14;;;;;;;7.28;2.65;;;;;;;24.77;88.90;101981.78;4967963;28;20057;-63
2022/07/04 11:20:43;;;;;;;5.20;2.33;;;;;;;24.93;86.37;101982.34;4971394;28;20057;-62
2022/07/04 11:23:11;;;;;;;6.55;1.98;;;;;;;25.14;85.71;101973.16;4959935;28;20177;-62
2022/07/04 11:25:40;;;;;;;4.53;2.10;;;;;;;25.12;85.64;101977.94;4979609;28;20351;-62
2022/07/04 11:28:19;;;;;;;4.95;2.30;;;;;;;24.91;86.24;101971.00;4979712;28;20501;-62
2022/07/04 11:31:06;;;;;;;6.47;1.92;;;;;;;25.11;87.61;101971.75;4979251;28;20327;-62
2022/07/04 11:33:36;;;;;;;5.80;2.43;;;;;;;25.24;84.18;101966.28;4955515;28;20050;-62
2022/07/04 11:36:09;;;;;;;6.50;2.17;;;;;;;25.53;84.38;101968.59;4964401;28;20061;-62
2022/07/04 11:38:58;;;;;;;7.90;1.95;;;;;;;25.78;86.32;101966.72;4978980;28;20038;-62
2022/07/04 11:47:20;;;;;;;5.18;1.75;;;;;;;26.17;77.25;101953.97;4964435;28;20092;-63
2022/07/04 11:49:46;;;;;;;5.47;1.90;;;;;;;26.29;76.23;101958.63;4969789;28;20434;-62